createdAt,value
2023-07-20T00:03:11.318Z,99309.75
2023-07-20T00:06:13.021Z,99308.25
2023-07-20T00:09:14.735Z,99312.09
2023-07-20T00:12:16.452Z,99321.47
2023-07-20T00:15:19.510Z,99345.66
2023-07-20T00:18:21.017Z,99336.13
2023-07-20T00:21:22.732Z,99327.78
2023-07-20T00:24:24.714Z,99348.78
2023-07-20T00:27:26.386Z,99346.16
2023-07-20T00:30:29.482Z,99326.41
2023-07-20T00:33:31.208Z,99315.66
2023-07-20T00:36:33.012Z,99309.47
2023-07-20T00:39:34.719Z,99327.88
2023-07-20T00:42:36.638Z,99336.22
2023-07-20T00:45:39.987Z,99319.44
2023-07-20T00:48:42.750Z,99309.31
2023-07-20T00:51:45.250Z,99320.50
2023-07-20T00:54:47.966Z,99323.72
2023-07-20T00:57:49.813Z,99321.44
2023-07-20T01:00:52.900Z,99313.44
2023-07-20T01:03:54.425Z,99322.78
2023-07-20T01:07:01.982Z,99315.13
2023-07-20T01:10:10.989Z,99310.91
2023-07-20T01:13:15.708Z,99304.84
2023-07-20T01:16:18.746Z,99301.56
2023-07-20T01:19:20.313Z,99304.38
2023-07-20T01:22:42.112Z,99300.03
2023-07-20T01:26:00.857Z,99301.16
2023-07-20T01:29:18.603Z,99299.97
2023-07-20T01:32:25.400Z,99286.75
2023-07-20T01:35:30.242Z,99286.13
2023-07-20T01:38:32.086Z,99304.47
2023-07-20T01:41:34.909Z,99296.56
2023-07-20T01:44:37.836Z,99302.19
2023-07-20T01:47:41.335Z,99297.88
2023-07-20T01:50:43.100Z,99306.00
2023-07-20T01:53:44.834Z,99317.97
2023-07-20T01:56:46.527Z,99310.78
2023-07-20T01:59:48.234Z,99306.34
2023-07-20T02:02:51.689Z,99303.97
2023-07-20T02:08:57.542Z,99318.94
2023-07-20T02:11:59.210Z,99310.94
2023-07-20T02:15:00.877Z,99308.97
2023-07-20T02:18:04.150Z,99301.84
2023-07-20T02:21:05.857Z,99309.09
2023-07-20T02:24:07.561Z,99311.03
2023-07-20T02:27:09.288Z,99317.88
2023-07-20T02:30:11.406Z,99320.91
2023-07-20T02:33:14.431Z,99317.25
2023-07-20T02:36:16.093Z,99317.34
2023-07-20T02:39:17.735Z,99314.63
2023-07-20T02:42:19.366Z,99326.47
2023-07-20T02:45:21.037Z,99329.47
2023-07-20T02:48:24.138Z,99337.06
2023-07-20T02:51:25.618Z,99323.19
2023-07-20T02:54:27.276Z,99320.47
2023-07-20T02:57:28.969Z,99321.66
2023-07-20T03:00:30.632Z,99320.78
2023-07-20T03:03:33.694Z,99326.66
2023-07-20T03:06:35.422Z,99332.31
2023-07-20T03:09:37.354Z,99333.28
2023-07-20T03:12:39.006Z,99336.88
2023-07-20T03:15:40.780Z,99334.38
2023-07-20T03:18:43.824Z,99331.75
2023-07-20T03:21:45.346Z,99337.50
2023-07-20T03:24:47.224Z,99346.81
2023-07-20T03:27:48.902Z,99346.72
2023-07-20T03:30:54.441Z,99357.00
2023-07-20T03:33:57.493Z,99348.78
2023-07-20T03:36:59.171Z,99356.56
2023-07-20T03:40:00.836Z,99364.78
2023-07-20T03:43:02.529Z,99378.00
2023-07-20T03:46:04.285Z,99382.88
2023-07-20T03:49:07.358Z,99376.47
2023-07-20T03:52:09.080Z,99376.69
2023-07-20T03:55:11.290Z,99380.78
2023-07-20T03:58:13.073Z,99387.31
2023-07-20T04:01:14.798Z,99382.19
2023-07-20T04:04:17.847Z,99382.09
2023-07-20T04:07:19.480Z,99380.84
2023-07-20T04:10:21.160Z,99376.28
2023-07-20T04:13:23.049Z,99377.56
2023-07-20T04:16:25.131Z,99381.06
2023-07-20T04:19:28.524Z,99389.56
2023-07-20T04:22:29.979Z,99388.41
2023-07-20T04:25:31.439Z,99396.44
2023-07-20T04:28:32.922Z,99397.97
2023-07-20T04:31:34.683Z,99404.03
2023-07-20T04:34:37.714Z,99402.09
2023-07-20T04:37:39.371Z,99403.84
2023-07-20T04:40:41.226Z,99404.59
2023-07-20T04:43:42.868Z,99392.41
2023-07-20T04:46:46.254Z,99390.38
2023-07-20T04:49:50.461Z,99397.34
2023-07-20T04:52:53.316Z,99391.84
2023-07-20T04:55:55.050Z,99392.72
2023-07-20T04:58:56.819Z,99390.47
2023-07-20T05:01:58.592Z,99391.91
2023-07-20T05:05:01.731Z,99382.47
2023-07-20T05:08:04.650Z,99385.50
2023-07-20T05:11:06.367Z,99391.38
2023-07-20T05:14:08.053Z,99391.81
2023-07-20T05:17:09.762Z,99400.50
2023-07-20T05:20:13.010Z,99400.50
2023-07-20T05:23:14.840Z,99391.94
2023-07-20T05:26:16.603Z,99394.13
2023-07-20T05:29:18.257Z,99387.59
2023-07-20T05:32:19.914Z,99385.25
2023-07-20T05:35:23.005Z,99390.00
2023-07-20T05:38:24.528Z,99386.75
2023-07-20T05:41:26.306Z,99394.78
2023-07-20T05:44:27.994Z,99390.88
2023-07-20T05:47:29.708Z,99391.94
2023-07-20T05:50:32.774Z,99380.69
2023-07-20T05:53:34.266Z,99381.00
2023-07-20T05:56:35.949Z,99377.81
2023-07-20T05:59:37.823Z,99387.88
2023-07-20T06:02:39.650Z,99389.41
2023-07-20T06:05:42.851Z,99385.19
2023-07-20T06:08:44.623Z,99378.94
2023-07-20T06:11:46.354Z,99390.22
2023-07-20T06:14:48.150Z,99391.72
2023-07-20T06:17:49.887Z,99411.09
2023-07-20T06:20:53.344Z,99416.47
2023-07-20T06:23:55.163Z,99421.31
2023-07-20T06:26:57.015Z,99422.53
2023-07-20T06:29:58.858Z,99417.22
2023-07-20T06:33:00.545Z,99426.28
2023-07-20T06:36:04.239Z,99431.50
2023-07-20T06:42:10.553Z,99426.25
2023-07-20T06:45:12.282Z,99431.09
2023-07-20T06:48:13.937Z,99428.44
2023-07-20T06:51:16.975Z,99426.09
2023-07-20T06:54:23.743Z,99431.06
2023-07-20T06:57:26.239Z,99430.47
2023-07-20T07:00:28.019Z,99431.44
2023-07-20T07:03:29.894Z,99424.88
2023-07-20T07:06:33.104Z,99430.09
2023-07-20T07:09:34.792Z,99424.16
2023-07-20T07:12:36.459Z,99425.13
2023-07-20T07:15:39.268Z,99424.88
2023-07-20T07:18:40.950Z,99427.97
2023-07-20T07:21:43.959Z,99429.78
2023-07-20T07:24:45.724Z,99431.50
2023-07-20T07:27:47.416Z,99435.69
2023-07-20T07:30:49.160Z,99439.66
2023-07-20T07:33:50.884Z,99436.69
2023-07-20T07:36:53.954Z,99438.63
2023-07-20T07:39:55.629Z,99444.03
2023-07-20T07:42:57.285Z,99438.41
2023-07-20T07:45:58.964Z,99444.81
2023-07-20T07:49:00.685Z,99445.09
2023-07-20T07:52:04.280Z,99453.59
2023-07-20T07:55:07.047Z,99463.47
2023-07-20T07:58:08.725Z,99461.22
2023-07-20T08:01:10.465Z,99463.00
2023-07-20T08:04:12.244Z,99459.88
2023-07-20T08:07:15.938Z,99460.94
2023-07-20T08:10:17.664Z,99464.81
2023-07-20T08:13:19.370Z,99461.47
2023-07-20T08:16:21.187Z,99464.66
2023-07-20T08:19:23.113Z,99469.25
2023-07-20T08:22:26.237Z,99465.56
2023-07-20T08:25:27.892Z,99475.91
2023-07-20T08:28:29.593Z,99464.69
2023-07-20T08:31:31.264Z,99453.38
2023-07-20T08:34:32.959Z,99448.53
2023-07-20T08:37:36.015Z,99465.34
2023-07-20T08:40:42.895Z,99471.22
2023-07-20T08:43:47.220Z,99470.69
2023-07-20T08:46:49.930Z,99469.75
2023-07-20T08:49:51.835Z,99473.53
2023-07-20T08:52:55.826Z,99475.97
2023-07-20T08:55:57.918Z,99479.03
2023-07-20T08:59:00.285Z,99470.97
2023-07-20T09:02:03.326Z,99475.44
2023-07-20T09:05:05.810Z,99492.13
2023-07-20T09:08:08.850Z,99485.25
2023-07-20T09:11:13.624Z,99483.66
2023-07-20T09:14:15.356Z,99488.63
2023-07-20T09:17:18.317Z,99490.16
2023-07-20T09:20:23.299Z,99492.50
2023-07-20T09:23:32.571Z,99495.78
2023-07-20T09:26:42.319Z,99490.31
2023-07-20T09:29:54.121Z,99493.22
2023-07-20T09:32:56.091Z,99504.88
2023-07-20T09:39:09.301Z,99505.63
2023-07-20T09:45:17.305Z,99506.75
2023-07-20T09:51:24.488Z,99506.03
2023-07-20T09:54:28.220Z,99493.34
2023-07-20T09:57:30.585Z,99490.91
2023-07-20T10:03:39.185Z,99489.47
2023-07-20T10:06:43.500Z,99491.63
2023-07-20T10:09:47.063Z,99488.06
2023-07-20T10:12:49.932Z,99491.78
2023-07-20T10:15:53.718Z,99483.56
2023-07-20T10:19:02.892Z,99479.38
2023-07-20T10:22:13.092Z,99489.16
2023-07-20T10:25:17.475Z,99484.16
2023-07-20T10:28:19.254Z,99482.84
2023-07-20T10:31:21.271Z,99490.03
2023-07-20T10:34:23.677Z,99487.59
2023-07-20T10:37:51.285Z,99484.13
2023-07-20T10:40:57.651Z,99490.00
2023-07-20T10:44:01.494Z,99488.97
2023-07-20T10:47:05.355Z,99495.56
2023-07-20T10:50:08.052Z,99507.25
2023-07-20T10:53:15.048Z,99486.91
2023-07-20T10:56:22.560Z,99492.53
2023-07-20T10:59:42.937Z,99489.38
2023-07-20T11:02:50.693Z,99479.28
2023-07-20T11:05:53.336Z,99483.31
2023-07-20T11:08:57.184Z,99479.25
2023-07-20T11:12:12.336Z,99476.78
2023-07-20T11:15:15.985Z,99483.09
2023-07-20T11:18:17.853Z,99491.31
2023-07-20T11:21:19.642Z,99487.88
2023-07-20T11:24:21.965Z,99489.06
2023-07-20T11:27:25.044Z,99496.13
2023-07-20T11:30:26.804Z,99481.53
2023-07-20T11:33:28.530Z,99484.88
2023-07-20T11:39:35.074Z,99505.53
2023-07-20T11:45:42.951Z,99477.50
2023-07-20T11:48:44.604Z,99476.03
2023-07-20T11:51:46.573Z,99491.75
2023-07-20T11:54:49.666Z,99480.78
2023-07-20T11:58:11.108Z,99470.50
2023-07-20T12:01:13.689Z,99471.53
2023-07-20T12:04:15.640Z,99488.75
2023-07-20T12:07:17.377Z,99482.53
2023-07-20T12:10:25.686Z,99490.50
2023-07-20T12:13:38.363Z,99485.53
2023-07-20T12:16:40.546Z,99474.94
2023-07-20T12:19:42.234Z,99485.28
2023-07-20T12:22:44.814Z,99488.91
2023-07-20T12:25:47.395Z,99484.66
2023-07-20T12:28:50.760Z,99486.84
2023-07-20T12:31:52.429Z,99474.19
2023-07-20T12:34:54.099Z,99477.56
2023-07-20T12:37:55.784Z,99481.00
2023-07-20T12:40:57.591Z,99468.28
2023-07-20T12:44:00.567Z,99474.72
2023-07-20T12:47:02.303Z,99469.06
2023-07-20T12:50:04.552Z,99475.53
2023-07-20T12:53:06.481Z,99471.72
2023-07-20T12:59:14.201Z,99470.66
2023-07-20T13:02:15.898Z,99470.94
2023-07-20T13:05:18.323Z,99467.66
2023-07-20T13:08:20.544Z,99454.03
2023-07-20T13:11:22.601Z,99463.59
2023-07-20T13:14:25.766Z,99464.44
2023-07-20T13:17:27.688Z,99487.38
2023-07-20T13:20:29.392Z,99464.84
2023-07-20T13:23:31.164Z,99449.63
2023-07-20T13:26:32.845Z,99469.56
2023-07-20T13:29:35.893Z,99462.03
2023-07-20T13:32:37.754Z,99465.72
2023-07-20T13:38:44.192Z,99458.63
2023-07-20T13:41:46.756Z,99453.78
2023-07-20T13:44:49.882Z,99459.88
2023-07-20T13:47:51.938Z,99445.38
2023-07-20T13:54:26.686Z,99437.88
2023-07-20T13:57:22.125Z,99439.38
2023-07-20T14:00:28.318Z,99435.34
2023-07-20T14:03:30.324Z,99443.28
2023-07-20T14:06:33.646Z,99442.25
2023-07-20T14:09:35.406Z,99445.16
2023-07-20T14:12:37.083Z,99429.22
2023-07-20T14:15:40.361Z,99437.53
2023-07-20T14:18:42.288Z,99449.53
2023-07-20T14:21:44.080Z,99449.09
2023-07-20T14:24:45.808Z,99442.09
2023-07-20T14:27:47.732Z,99443.69
2023-07-20T14:30:52.379Z,99450.66
2023-07-20T14:33:54.065Z,99448.88
2023-07-20T14:40:15.491Z,99443.03
2023-07-20T14:43:17.394Z,99445.56
2023-07-20T14:46:21.688Z,99458.66
2023-07-20T14:49:23.764Z,99459.84
2023-07-20T14:52:29.421Z,99446.50
2023-07-20T14:55:31.283Z,99443.38
2023-07-20T14:58:34.873Z,99458.13
2023-07-20T15:01:38.947Z,99458.50
2023-07-20T15:04:47.010Z,99460.88
2023-07-20T15:07:48.974Z,99464.22
2023-07-20T15:10:50.673Z,99465.22
2023-07-20T15:13:52.370Z,99470.94
2023-07-20T15:16:55.451Z,99477.69
2023-07-20T15:19:57.166Z,99482.13
2023-07-20T15:22:58.889Z,99483.91
2023-07-20T15:26:00.559Z,99468.47
2023-07-20T15:29:02.205Z,99473.41
2023-07-20T15:32:06.374Z,99474.50
2023-07-20T15:35:09.098Z,99467.88
2023-07-20T15:38:10.559Z,99455.47
2023-07-20T15:41:12.267Z,99458.75
2023-07-20T15:44:14.134Z,99450.47
2023-07-20T15:47:17.267Z,99460.44
2023-07-20T15:50:22.440Z,99450.94
2023-07-20T15:53:24.336Z,99463.75
2023-07-20T15:56:26.223Z,99459.69
2023-07-20T15:59:28.013Z,99461.31
2023-07-20T16:02:32.096Z,99463.59
2023-07-20T16:05:33.968Z,99471.69
2023-07-20T16:08:35.716Z,99461.97
2023-07-20T16:11:38.334Z,99461.53
2023-07-20T16:17:46.489Z,99450.19
2023-07-20T16:20:48.386Z,99450.19
2023-07-20T16:23:50.782Z,99454.97
2023-07-20T16:26:52.436Z,99455.53
2023-07-20T16:29:54.160Z,99458.88
2023-07-20T16:32:57.578Z,99460.16
2023-07-20T16:35:59.307Z,99466.31
2023-07-20T16:42:07.167Z,99468.06
2023-07-20T16:45:09.967Z,99464.63
2023-07-20T16:48:14.525Z,99470.38
2023-07-20T16:51:17.381Z,99461.50
2023-07-20T16:54:19.096Z,99464.00
2023-07-20T16:57:22.026Z,99471.56
2023-07-20T17:00:23.718Z,99472.31
2023-07-20T17:03:26.919Z,99471.16
2023-07-20T17:06:34.614Z,99482.75
2023-07-20T17:09:36.407Z,99475.53
2023-07-20T17:12:39.321Z,99480.63
2023-07-20T17:15:41.172Z,99472.84
2023-07-20T17:18:44.302Z,99482.81
2023-07-20T17:21:45.971Z,99477.19
2023-07-20T17:30:58.722Z,99478.81
2023-07-20T17:34:03.110Z,99471.16
2023-07-20T17:43:15.460Z,99486.75
2023-07-20T17:49:24.509Z,99495.38
2023-07-20T17:52:26.308Z,99488.31
2023-07-20T17:55:28.542Z,99498.28
2023-07-20T17:58:30.951Z,99494.50
2023-07-20T18:01:33.676Z,99501.84
2023-07-20T18:04:36.805Z,99504.09
2023-07-20T18:07:38.930Z,99498.06
2023-07-20T18:10:41.104Z,99497.31
2023-07-20T18:13:43.681Z,99498.59
2023-07-20T18:16:45.424Z,99498.03
2023-07-20T18:19:50.795Z,99497.44
2023-07-20T18:22:53.000Z,99505.22
2023-07-20T18:25:55.722Z,99503.91
2023-07-20T18:28:57.884Z,99503.72
2023-07-20T18:32:00.576Z,99506.88
2023-07-20T18:35:04.200Z,99516.47
2023-07-20T18:38:05.983Z,99515.72
2023-07-20T18:41:08.204Z,99513.84
2023-07-20T18:44:10.290Z,99524.59
2023-07-20T18:47:12.654Z,99528.88
2023-07-20T18:50:16.343Z,99528.00
2023-07-20T18:53:18.885Z,99537.16
2023-07-20T18:56:20.586Z,99541.56
2023-07-20T18:59:22.770Z,99537.06
2023-07-20T19:02:25.696Z,99542.88
2023-07-20T19:05:29.735Z,99541.00
2023-07-20T19:08:31.466Z,99543.38
2023-07-20T19:14:38.268Z,99552.31
2023-07-20T19:17:40.899Z,99563.22
2023-07-20T19:20:44.522Z,99568.47
2023-07-20T19:23:46.249Z,99571.34
2023-07-20T19:26:47.972Z,99567.41
2023-07-20T19:29:50.850Z,99577.75
2023-07-20T19:32:52.980Z,99582.81
2023-07-20T19:35:57.160Z,99588.69
2023-07-20T19:39:00.931Z,99588.34
2023-07-20T19:42:06.887Z,99587.84
2023-07-20T19:45:09.658Z,99593.47
2023-07-20T19:48:12.063Z,99593.22
2023-07-20T19:51:15.265Z,99601.75
2023-07-20T20:09:51.655Z,99613.84
2023-07-20T20:12:54.447Z,99616.69
2023-07-20T20:15:56.661Z,99610.13
2023-07-20T20:18:58.905Z,99614.84
2023-07-20T20:22:02.658Z,99614.13
2023-07-20T20:25:07.224Z,99602.81
2023-07-20T20:28:09.470Z,99608.66
2023-07-20T20:31:12.046Z,99604.03
2023-07-20T20:34:14.337Z,99608.47
2023-07-20T20:37:17.027Z,99618.63
2023-07-20T20:40:21.607Z,99617.22
2023-07-20T20:43:23.864Z,99613.00
2023-07-20T20:46:26.464Z,99612.53
2023-07-20T20:49:29.436Z,99622.00
2023-07-20T20:52:31.128Z,99617.13
2023-07-20T20:55:34.774Z,99623.91
2023-07-20T20:58:36.454Z,99626.19
2023-07-20T21:01:38.166Z,99627.00
2023-07-20T21:04:40.122Z,99628.97
2023-07-20T21:07:41.847Z,99620.53
2023-07-20T21:10:46.795Z,99622.88
2023-07-20T21:13:49.886Z,99619.91
2023-07-20T21:16:51.654Z,99616.56
2023-07-20T21:19:53.340Z,99624.72
2023-07-20T21:22:55.137Z,99623.88
2023-07-20T21:25:58.167Z,99623.78
2023-07-20T21:28:59.669Z,99621.06
2023-07-20T21:32:01.317Z,99624.31
2023-07-20T21:35:03.025Z,99622.91
2023-07-20T21:38:04.659Z,99626.38
2023-07-20T21:41:07.962Z,99625.75
2023-07-20T21:44:09.581Z,99629.97
2023-07-20T21:47:11.215Z,99630.06
2023-07-20T21:50:12.896Z,99639.00
2023-07-20T21:53:14.551Z,99635.50
2023-07-20T21:56:17.640Z,99634.53
2023-07-20T21:59:19.275Z,99632.78
2023-07-20T22:02:20.982Z,99622.88
2023-07-20T22:05:22.899Z,99627.81
2023-07-20T22:08:24.724Z,99630.09
2023-07-20T22:11:27.749Z,99631.94
2023-07-20T22:14:29.417Z,99640.81
2023-07-20T22:17:31.119Z,99643.66
2023-07-20T22:20:32.859Z,99646.25
2023-07-20T22:23:35.108Z,99647.34
2023-07-20T22:26:38.198Z,99643.19
2023-07-20T22:29:39.664Z,99649.72
2023-07-20T22:32:42.837Z,99640.91
2023-07-20T22:35:44.579Z,99645.09
2023-07-20T22:38:46.291Z,99645.31
2023-07-20T22:41:49.276Z,99646.41
2023-07-20T22:44:55.209Z,99644.00
2023-07-20T22:47:56.885Z,99656.81
2023-07-20T22:50:58.584Z,99649.97
2023-07-20T22:54:00.304Z,99657.63
2023-07-20T22:57:03.426Z,99654.47
2023-07-20T23:00:05.485Z,99651.00
2023-07-20T23:03:07.399Z,99666.28
2023-07-20T23:06:09.214Z,99661.19
2023-07-20T23:09:10.901Z,99664.53
2023-07-20T23:12:13.964Z,99662.53
2023-07-20T23:15:15.521Z,99661.88
2023-07-20T23:18:17.243Z,99669.19
2023-07-20T23:21:18.861Z,99672.59
2023-07-20T23:24:20.599Z,99677.25
2023-07-20T23:27:23.662Z,99664.84
2023-07-20T23:30:25.191Z,99673.06
2023-07-20T23:33:26.848Z,99666.09
2023-07-20T23:36:28.919Z,99661.88
2023-07-20T23:39:30.752Z,99653.84
2023-07-20T23:42:33.786Z,99655.00
2023-07-20T23:45:35.514Z,99659.69
2023-07-20T23:48:37.905Z,99666.94
2023-07-20T23:51:39.589Z,99664.41
2023-07-20T23:54:41.506Z,99668.19
2023-07-20T23:57:44.881Z,99670.44
